sensor_id;sensor_type;location;lat;lon;timestamp;P1;durP1;ratioP1;P2;durP2;ratioP2
18042;SDS011;9146;48.074;11.968;2024-03-23T00:55:19;3.30;;;3.10;;
18042;SDS011;9146;48.074;11.968;2024-03-23T00:57:45;3.23;;;2.93;;
18042;SDS011;9146;48.074;11.968;2024-03-23T01:00:13;4.20;;;3.80;;
18042;SDS011;9146;48.074;11.968;2024-03-23T01:02:41;3.67;;;3.37;;
18042;SDS011;9146;48.074;11.968;2024-03-23T01:05:06;4.77;;;3.80;;
18042;SDS011;9146;48.074;11.968;2024-03-23T01:07:34;4.40;;;4.00;;
18042;SDS011;9146;48.074;11.968;2024-03-23T01:10:01;3.80;;;3.50;;
18042;SDS011;9146;48.074;11.968;2024-03-23T01:12:28;4.13;;;3.43;;
18042;SDS011;9146;48.074;11.968;2024-03-23T01:14:54;3.70;;;3.40;;
18042;SDS011;9146;48.074;11.968;2024-03-23T01:17:21;4.17;;;3.80;;
18042;SDS011;9146;48.074;11.968;2024-03-23T01:19:46;4.87;;;4.33;;
18042;SDS011;9146;48.074;11.968;2024-03-23T01:22:13;4.73;;;4.20;;
18042;SDS011;9146;48.074;11.968;2024-03-23T01:24:39;5.23;;;3.97;;
18042;SDS011;9146;48.074;11.968;2024-03-23T01:27:08;5.17;;;4.67;;
18042;SDS011;9146;48.074;11.968;2024-03-23T01:29:35;5.03;;;4.20;;
18042;SDS011;9146;48.074;11.968;2024-03-23T01:32:01;6.17;;;5.50;;
18042;SDS011;9146;48.074;11.968;2024-03-23T01:34:28;4.70;;;4.20;;
18042;SDS011;9146;48.074;11.968;2024-03-23T01:36:54;5.47;;;4.57;;
18042;SDS011;9146;48.074;11.968;2024-03-23T01:39:20;5.07;;;4.57;;
18042;SDS011;9146;48.074;11.968;2024-03-23T01:41:49;4.43;;;4.00;;
18042;SDS011;9146;48.074;11.968;2024-03-23T01:44:17;4.97;;;3.90;;
18042;SDS011;9146;48.074;11.968;2024-03-23T01:46:44;5.27;;;4.13;;
18042;SDS011;9146;48.074;11.968;2024-03-23T01:49:10;4.47;;;4.07;;
18042;SDS011;9146;48.074;11.968;2024-03-23T01:51:38;5.73;;;4.27;;
18042;SDS011;9146;48.074;11.968;2024-03-23T01:54:05;4.43;;;3.83;;
18042;SDS011;9146;48.074;11.968;2024-03-23T01:56:33;5.57;;;4.87;;
18042;SDS011;9146;48.074;11.968;2024-03-23T01:59:00;8.33;;;4.90;;
18042;SDS011;9146;48.074;11.968;2024-03-23T02:01:28;4.73;;;4.33;;
18042;SDS011;9146;48.074;11.968;2024-03-23T02:03:55;4.30;;;3.90;;
18042;SDS011;9146;48.074;11.968;2024-03-23T02:06:22;5.53;;;4.50;;
18042;SDS011;9146;48.074;11.968;2024-03-23T02:08:49;5.73;;;4.70;;
18042;SDS011;9146;48.074;11.968;2024-03-23T02:11:16;5.73;;;4.57;;
18042;SDS011;9146;48.074;11.968;2024-03-23T02:13:42;5.83;;;5.17;;
18042;SDS011;9146;48.074;11.968;2024-03-23T02:16:08;4.83;;;4.43;;
18042;SDS011;9146;48.074;11.968;2024-03-23T02:18:36;4.10;;;3.80;;
18042;SDS011;9146;48.074;11.968;2024-03-23T02:21:03;4.30;;;3.90;;
18042;SDS011;9146;48.074;11.968;2024-03-23T02:23:31;4.20;;;3.73;;
18042;SDS011;9146;48.074;11.968;2024-03-23T02:25:58;4.83;;;4.20;;
18042;SDS011;9146;48.074;11.968;2024-03-23T02:28:24;3.80;;;3.50;;
18042;SDS011;9146;48.074;11.968;2024-03-23T02:30:50;5.50;;;3.67;;
18042;SDS011;9146;48.074;11.968;2024-03-23T02:33:17;4.30;;;4.00;;
18042;SDS011;9146;48.074;11.968;2024-03-23T02:35:44;4.43;;;4.07;;
18042;SDS011;9146;48.074;11.968;2024-03-23T02:38:10;4.40;;;4.00;;
18042;SDS011;9146;48.074;11.968;2024-03-23T02:40:40;4.90;;;4.00;;
18042;SDS011;9146;48.074;11.968;2024-03-23T02:43:06;4.70;;;4.30;;
18042;SDS011;9146;48.074;11.968;2024-03-23T02:45:32;4.77;;;3.80;;
18042;SDS011;9146;48.074;11.968;2024-03-23T02:47:58;5.13;;;3.23;;
18042;SDS011;9146;48.074;11.968;2024-03-23T02:50:25;3.50;;;3.20;;
18042;SDS011;9146;48.074;11.968;2024-03-23T02:52:51;3.47;;;3.27;;
18042;SDS011;9146;48.074;11.968;2024-03-23T02:55:18;3.70;;;3.40;;
18042;SDS011;9146;48.074;11.968;2024-03-23T02:57:45;3.00;;;2.80;;
18042;SDS011;9146;48.074;11.968;2024-03-23T03:00:12;3.70;;;3.40;;
18042;SDS011;9146;48.074;11.968;2024-03-23T03:02:38;4.10;;;3.70;;
18042;SDS011;9146;48.074;11.968;2024-03-23T03:05:05;3.93;;;3.63;;
18042;SDS011;9146;48.074;11.968;2024-03-23T03:07:31;4.60;;;4.00;;
18042;SDS011;9146;48.074;11.968;2024-03-23T03:09:58;3.50;;;3.20;;
18042;SDS011;9146;48.074;11.968;2024-03-23T03:12:24;4.47;;;3.53;;
18042;SDS011;9146;48.074;11.968;2024-03-23T03:14:53;5.93;;;3.13;;
18042;SDS011;9146;48.074;11.968;2024-03-23T03:17:19;6.30;;;3.37;;
18042;SDS011;9146;48.074;11.968;2024-03-23T03:19:46;3.00;;;2.80;;
18042;SDS011;9146;48.074;11.968;2024-03-23T03:22:12;3.13;;;2.40;;
18042;SDS011;9146;48.074;11.968;2024-03-23T03:24:39;2.73;;;2.50;;
18042;SDS011;9146;48.074;11.968;2024-03-23T03:27:04;3.83;;;3.50;;
18042;SDS011;9146;48.074;11.968;2024-03-23T03:29:31;3.07;;;2.67;;
18042;SDS011;9146;48.074;11.968;2024-03-23T03:32:02;2.63;;;2.53;;
18042;SDS011;9146;48.074;11.968;2024-03-23T03:34:29;2.80;;;2.60;;
18042;SDS011;9146;48.074;11.968;2024-03-23T03:36:56;2.63;;;2.43;;
18042;SDS011;9146;48.074;11.968;2024-03-23T03:39:23;2.47;;;2.30;;
18042;SDS011;9146;48.074;11.968;2024-03-23T03:41:49;4.00;;;2.07;;
18042;SDS011;9146;48.074;11.968;2024-03-23T03:44:16;2.60;;;2.20;;
18042;SDS011;9146;48.074;11.968;2024-03-23T03:46:42;1.97;;;1.87;;
18042;SDS011;9146;48.074;11.968;2024-03-23T03:49:10;2.40;;;2.20;;
18042;SDS011;9146;48.074;11.968;2024-03-23T03:51:36;3.20;;;2.70;;
18042;SDS011;9146;48.074;11.968;2024-03-23T03:54:03;2.30;;;2.00;;
18042;SDS011;9146;48.074;11.968;2024-03-23T03:56:29;3.63;;;2.27;;
18042;SDS011;9146;48.074;11.968;2024-03-23T03:58:56;2.90;;;2.30;;
18042;SDS011;9146;48.074;11.968;2024-03-23T04:01:22;2.30;;;2.20;;
18042;SDS011;9146;48.074;11.968;2024-03-23T04:03:49;2.47;;;2.27;;
18042;SDS011;9146;48.074;11.968;2024-03-23T04:06:19;2.73;;;2.53;;
18042;SDS011;9146;48.074;11.968;2024-03-23T04:08:46;2.90;;;2.70;;
18042;SDS011;9146;48.074;11.968;2024-03-23T04:11:12;2.43;;;2.33;;
18042;SDS011;9146;48.074;11.968;2024-03-23T04:13:39;3.00;;;2.80;;
18042;SDS011;9146;48.074;11.968;2024-03-23T04:16:06;2.90;;;2.80;;
18042;SDS011;9146;48.074;11.968;2024-03-23T04:18:34;3.87;;;3.43;;
18042;SDS011;9146;48.074;11.968;2024-03-23T04:21:00;2.80;;;2.60;;
18042;SDS011;9146;48.074;11.968;2024-03-23T04:23:28;2.50;;;2.40;;
18042;SDS011;9146;48.074;11.968;2024-03-23T04:25:54;2.63;;;2.50;;
18042;SDS011;9146;48.074;11.968;2024-03-23T04:28:21;2.90;;;2.70;;
18042;SDS011;9146;48.074;11.968;2024-03-23T04:30:47;2.80;;;2.50;;
18042;SDS011;9146;48.074;11.968;2024-03-23T04:33:14;3.20;;;2.70;;
18042;SDS011;9146;48.074;11.968;2024-03-23T04:35:40;3.60;;;2.50;;
18042;SDS011;9146;48.074;11.968;2024-03-23T04:38:06;2.83;;;2.63;;
18042;SDS011;9146;48.074;11.968;2024-03-23T04:40:35;2.50;;;2.30;;
18042;SDS011;9146;48.074;11.968;2024-03-23T04:43:01;2.33;;;2.23;;
18042;SDS011;9146;48.074;11.968;2024-03-23T04:45:29;2.63;;;2.43;;
18042;SDS011;9146;48.074;11.968;2024-03-23T04:47:56;3.20;;;2.30;;
18042;SDS011;9146;48.074;11.968;2024-03-23T04:50:23;2.20;;;2.00;;
18042;SDS011;9146;48.074;11.968;2024-03-23T04:52:50;7.00;;;2.77;;
18042;SDS011;9146;48.074;11.968;2024-03-23T04:55:16;2.43;;;2.27;;
18042;SDS011;9146;48.074;11.968;2024-03-23T04:57:44;2.40;;;2.20;;
18042;SDS011;9146;48.074;11.968;2024-03-23T05:00:11;2.20;;;1.97;;
18042;SDS011;9146;48.074;11.968;2024-03-23T05:02:43;2.83;;;2.33;;
18042;SDS011;9146;48.074;11.968;2024-03-23T05:05:11;3.20;;;2.50;;
18042;SDS011;9146;48.074;11.968;2024-03-23T05:07:37;3.23;;;2.43;;
18042;SDS011;9146;48.074;11.968;2024-03-23T05:10:04;2.53;;;2.33;;
18042;SDS011;9146;48.074;11.968;2024-03-23T05:12:31;2.53;;;2.20;;
18042;SDS011;9146;48.074;11.968;2024-03-23T05:15:00;2.53;;;2.33;;
18042;SDS011;9146;48.074;11.968;2024-03-23T05:17:26;3.80;;;2.53;;
18042;SDS011;9146;48.074;11.968;2024-03-23T05:19:54;2.40;;;2.20;;
18042;SDS011;9146;48.074;11.968;2024-03-23T05:22:20;2.37;;;2.17;;
18042;SDS011;9146;48.074;11.968;2024-03-23T05:24:46;2.43;;;2.20;;
18042;SDS011;9146;48.074;11.968;2024-03-23T05:27:12;2.30;;;2.20;;
18042;SDS011;9146;48.074;11.968;2024-03-23T05:29:39;3.43;;;2.57;;
18042;SDS011;9146;48.074;11.968;2024-03-23T05:32:07;2.73;;;2.03;;
18042;SDS011;9146;48.074;11.968;2024-03-23T05:34:34;2.17;;;2.03;;
18042;SDS011;9146;48.074;11.968;2024-03-23T05:37:00;3.50;;;2.40;;
18042;SDS011;9146;48.074;11.968;2024-03-23T05:39:26;2.00;;;1.90;;
18042;SDS011;9146;48.074;11.968;2024-03-23T05:41:52;2.40;;;2.20;;
18042;SDS011;9146;48.074;11.968;2024-03-23T05:44:19;2.80;;;2.40;;
18042;SDS011;9146;48.074;11.968;2024-03-23T05:46:45;2.00;;;1.90;;
18042;SDS011;9146;48.074;11.968;2024-03-23T05:49:16;2.10;;;1.90;;
18042;SDS011;9146;48.074;11.968;2024-03-23T05:51:42;4.23;;;2.20;;
18042;SDS011;9146;48.074;11.968;2024-03-23T05:54:09;2.80;;;2.27;;
18042;SDS011;9146;48.074;11.968;2024-03-23T05:56:35;1.83;;;1.73;;
18042;SDS011;9146;48.074;11.968;2024-03-23T05:59:02;2.20;;;2.00;;
18042;SDS011;9146;48.074;11.968;2024-03-23T06:01:28;2.33;;;2.13;;
18042;SDS011;9146;48.074;11.968;2024-03-23T06:03:57;2.83;;;1.87;;
18042;SDS011;9146;48.074;11.968;2024-03-23T06:06:25;1.60;;;1.50;;
18042;SDS011;9146;48.074;11.968;2024-03-23T06:08:52;1.80;;;1.70;;
18042;SDS011;9146;48.074;11.968;2024-03-23T06:11:17;1.80;;;1.70;;
18042;SDS011;9146;48.074;11.968;2024-03-23T06:13:44;2.20;;;1.83;;
18042;SDS011;9146;48.074;11.968;2024-03-23T06:16:10;2.17;;;2.07;;
18042;SDS011;9146;48.074;11.968;2024-03-23T06:18:37;1.73;;;1.63;;
18042;SDS011;9146;48.074;11.968;2024-03-23T06:21:05;1.40;;;1.30;;
18042;SDS011;9146;48.074;11.968;2024-03-23T06:23:40;1.67;;;1.57;;
18042;SDS011;9146;48.074;11.968;2024-03-23T06:26:06;1.43;;;1.43;;
18042;SDS011;9146;48.074;11.968;2024-03-23T06:28:33;1.20;;;1.20;;
18042;SDS011;9146;48.074;11.968;2024-03-23T06:30:59;1.50;;;1.40;;
18042;SDS011;9146;48.074;11.968;2024-03-23T06:33:26;1.93;;;1.27;;
18042;SDS011;9146;48.074;11.968;2024-03-23T06:35:52;1.60;;;1.50;;
18042;SDS011;9146;48.074;11.968;2024-03-23T06:38:19;1.40;;;1.30;;
18042;SDS011;9146;48.074;11.968;2024-03-23T06:40:46;1.70;;;1.60;;
18042;SDS011;9146;48.074;11.968;2024-03-23T06:43:15;2.23;;;1.70;;
18042;SDS011;9146;48.074;11.968;2024-03-23T06:45:41;1.23;;;1.20;;
18042;SDS011;9146;48.074;11.968;2024-03-23T06:48:08;1.37;;;1.27;;
18042;SDS011;9146;48.074;11.968;2024-03-23T06:50:34;1.60;;;1.50;;
18042;SDS011;9146;48.074;11.968;2024-03-23T06:53:01;1.40;;;1.40;;
18042;SDS011;9146;48.074;11.968;2024-03-23T06:55:30;1.30;;;1.20;;
18042;SDS011;9146;48.074;11.968;2024-03-23T06:57:58;1.40;;;1.30;;
18042;SDS011;9146;48.074;11.968;2024-03-23T07:00:24;1.60;;;1.50;;
18042;SDS011;9146;48.074;11.968;2024-03-23T07:02:51;1.83;;;1.73;;
18042;SDS011;9146;48.074;11.968;2024-03-23T07:05:17;1.67;;;1.57;;
18042;SDS011;9146;48.074;11.968;2024-03-23T07:07:44;2.07;;;1.90;;
18042;SDS011;9146;48.074;11.968;2024-03-23T07:10:10;2.17;;;1.97;;
18042;SDS011;9146;48.074;11.968;2024-03-23T07:12:37;2.10;;;2.00;;
18042;SDS011;9146;48.074;11.968;2024-03-23T07:15:06;1.73;;;1.63;;
18042;SDS011;9146;48.074;11.968;2024-03-23T07:17:34;1.60;;;1.50;;
18042;SDS011;9146;48.074;11.968;2024-03-23T07:20:00;1.60;;;1.50;;
18042;SDS011;9146;48.074;11.968;2024-03-23T07:22:28;1.67;;;1.57;;
18042;SDS011;9146;48.074;11.968;2024-03-23T07:24:54;1.83;;;1.70;;
18042;SDS011;9146;48.074;11.968;2024-03-23T07:27:21;1.90;;;1.80;;
18042;SDS011;9146;48.074;11.968;2024-03-23T07:29:48;2.07;;;1.87;;
18042;SDS011;9146;48.074;11.968;2024-03-23T07:32:17;2.33;;;2.00;;
18042;SDS011;9146;48.074;11.968;2024-03-23T07:34:43;3.07;;;1.93;;
18042;SDS011;9146;48.074;11.968;2024-03-23T07:37:10;2.00;;;1.90;;
18042;SDS011;9146;48.074;11.968;2024-03-23T07:39:36;1.90;;;1.70;;
18042;SDS011;9146;48.074;11.968;2024-03-23T07:42:03;2.20;;;2.00;;
18042;SDS011;9146;48.074;11.968;2024-03-23T07:44:30;3.47;;;2.17;;
18042;SDS011;9146;48.074;11.968;2024-03-23T07:46:58;2.33;;;2.17;;
18042;SDS011;9146;48.074;11.968;2024-03-23T07:49:27;2.03;;;1.83;;
18042;SDS011;9146;48.074;11.968;2024-03-23T07:51:53;2.20;;;2.10;;
18042;SDS011;9146;48.074;11.968;2024-03-23T07:54:19;1.90;;;1.80;;
18042;SDS011;9146;48.074;11.968;2024-03-23T07:56:46;1.80;;;1.70;;
18042;SDS011;9146;48.074;11.968;2024-03-23T07:59:12;3.63;;;1.90;;
18042;SDS011;9146;48.074;11.968;2024-03-23T08:01:39;2.53;;;1.83;;
18042;SDS011;9146;48.074;11.968;2024-03-23T08:04:05;1.50;;;1.40;;
18042;SDS011;9146;48.074;11.968;2024-03-23T08:06:33;3.27;;;1.77;;
18042;SDS011;9146;48.074;11.968;2024-03-23T08:08:59;1.63;;;1.53;;
18042;SDS011;9146;48.074;11.968;2024-03-23T08:11:27;1.70;;;1.60;;
18042;SDS011;9146;48.074;11.968;2024-03-23T08:13:53;3.57;;;1.63;;
18042;SDS011;9146;48.074;11.968;2024-03-23T08:16:21;1.77;;;1.67;;
18042;SDS011;9146;48.074;11.968;2024-03-23T08:18:47;2.70;;;2.10;;
18042;SDS011;9146;48.074;11.968;2024-03-23T08:21:14;3.50;;;1.97;;
18042;SDS011;9146;48.074;11.968;2024-03-23T08:23:41;7.23;;;2.70;;
18042;SDS011;9146;48.074;11.968;2024-03-23T08:26:10;2.03;;;1.77;;
18042;SDS011;9146;48.074;11.968;2024-03-23T08:28:37;1.50;;;1.40;;
18042;SDS011;9146;48.074;11.968;2024-03-23T08:31:04;1.70;;;1.60;;
18042;SDS011;9146;48.074;11.968;2024-03-23T08:33:32;6.90;;;1.60;;
18042;SDS011;9146;48.074;11.968;2024-03-23T08:36:00;1.50;;;1.40;;
18042;SDS011;9146;48.074;11.968;2024-03-23T08:38:27;1.53;;;1.43;;
18042;SDS011;9146;48.074;11.968;2024-03-23T08:41:00;2.07;;;1.73;;
18042;SDS011;9146;48.074;11.968;2024-03-23T08:43:27;2.30;;;2.03;;
18042;SDS011;9146;48.074;11.968;2024-03-23T08:46:02;3.57;;;2.13;;
18042;SDS011;9146;48.074;11.968;2024-03-23T08:48:29;2.47;;;2.10;;
18042;SDS011;9146;48.074;11.968;2024-03-23T08:51:00;2.97;;;1.80;;
18042;SDS011;9146;48.074;11.968;2024-03-23T08:53:27;2.27;;;2.17;;
18042;SDS011;9146;48.074;11.968;2024-03-23T08:55:54;2.73;;;2.40;;
18042;SDS011;9146;48.074;11.968;2024-03-23T08:58:22;2.40;;;2.20;;
18042;SDS011;9146;48.074;11.968;2024-03-23T09:00:50;2.53;;;2.43;;
18042;SDS011;9146;48.074;11.968;2024-03-23T09:03:16;1.90;;;1.80;;
18042;SDS011;9146;48.074;11.968;2024-03-23T09:05:43;3.57;;;2.47;;
18042;SDS011;9146;48.074;11.968;2024-03-23T09:08:09;4.33;;;2.60;;
18042;SDS011;9146;48.074;11.968;2024-03-23T09:10:38;2.47;;;2.27;;
18042;SDS011;9146;48.074;11.968;2024-03-23T09:13:04;2.80;;;2.33;;
18042;SDS011;9146;48.074;11.968;2024-03-23T09:15:34;2.93;;;2.50;;
18042;SDS011;9146;48.074;11.968;2024-03-23T09:18:00;3.60;;;2.50;;
18042;SDS011;9146;48.074;11.968;2024-03-23T09:20:27;4.50;;;2.53;;
18042;SDS011;9146;48.074;11.968;2024-03-23T09:22:54;4.00;;;3.10;;
18042;SDS011;9146;48.074;11.968;2024-03-23T09:25:21;3.60;;;2.63;;
18042;SDS011;9146;48.074;11.968;2024-03-23T09:27:47;2.73;;;2.53;;
18042;SDS011;9146;48.074;11.968;2024-03-23T09:30:14;4.97;;;3.53;;
18042;SDS011;9146;48.074;11.968;2024-03-23T09:32:43;3.53;;;3.00;;
18042;SDS011;9146;48.074;11.968;2024-03-23T09:35:10;3.50;;;3.17;;
18042;SDS011;9146;48.074;11.968;2024-03-23T09:37:36;3.47;;;3.10;;
18042;SDS011;9146;48.074;11.968;2024-03-23T09:40:05;3.73;;;3.43;;
18042;SDS011;9146;48.074;11.968;2024-03-23T09:42:34;4.77;;;4.03;;
18042;SDS011;9146;48.074;11.968;2024-03-23T09:45:01;3.50;;;3.27;;
18042;SDS011;9146;48.074;11.968;2024-03-23T09:47:30;4.13;;;3.33;;
18042;SDS011;9146;48.074;11.968;2024-03-23T09:50:00;4.30;;;3.63;;
18042;SDS011;9146;48.074;11.968;2024-03-23T09:52:27;3.77;;;3.40;;
18042;SDS011;9146;48.074;11.968;2024-03-23T09:54:54;3.90;;;3.23;;
18042;SDS011;9146;48.074;11.968;2024-03-23T09:57:20;6.03;;;3.23;;
18042;SDS011;9146;48.074;11.968;2024-03-23T09:59:46;5.00;;;3.47;;
18042;SDS011;9146;48.074;11.968;2024-03-23T10:02:12;5.70;;;3.73;;
18042;SDS011;9146;48.074;11.968;2024-03-23T10:04:45;3.37;;;3.07;;
18042;SDS011;9146;48.074;11.968;2024-03-23T10:07:13;3.07;;;2.77;;
18042;SDS011;9146;48.074;11.968;2024-03-23T10:09:42;3.87;;;3.33;;
18042;SDS011;9146;48.074;11.968;2024-03-23T10:12:08;2.90;;;2.57;;
18042;SDS011;9146;48.074;11.968;2024-03-23T10:14:37;3.03;;;2.50;;
18042;SDS011;9146;48.074;11.968;2024-03-23T10:19:49;4.07;;;2.50;;
18042;SDS011;9146;48.074;11.968;2024-03-23T10:22:19;4.27;;;3.33;;
18042;SDS011;9146;48.074;11.968;2024-03-23T10:24:47;4.87;;;2.70;;
18042;SDS011;9146;48.074;11.968;2024-03-23T10:27:14;2.33;;;1.93;;
18042;SDS011;9146;48.074;11.968;2024-03-23T10:29:42;2.20;;;2.00;;
18042;SDS011;9146;48.074;11.968;2024-03-23T10:32:09;3.07;;;2.30;;
18042;SDS011;9146;48.074;11.968;2024-03-23T10:34:36;2.20;;;1.60;;
18042;SDS011;9146;48.074;11.968;2024-03-23T10:37:03;1.33;;;1.30;;
18042;SDS011;9146;48.074;11.968;2024-03-23T10:39:33;1.47;;;1.37;;
18042;SDS011;9146;48.074;11.968;2024-03-23T10:42:00;1.30;;;1.30;;
18042;SDS011;9146;48.074;11.968;2024-03-23T10:44:29;1.57;;;1.47;;
18042;SDS011;9146;48.074;11.968;2024-03-23T10:46:56;1.73;;;1.63;;
18042;SDS011;9146;48.074;11.968;2024-03-23T10:49:26;1.50;;;1.40;;
18042;SDS011;9146;48.074;11.968;2024-03-23T10:51:54;1.53;;;1.43;;
18042;SDS011;9146;48.074;11.968;2024-03-23T10:54:24;2.60;;;1.40;;
18042;SDS011;9146;48.074;11.968;2024-03-23T10:56:54;1.23;;;1.10;;
18042;SDS011;9146;48.074;11.968;2024-03-23T10:59:25;1.30;;;1.20;;
18042;SDS011;9146;48.074;11.968;2024-03-23T11:01:55;1.00;;;1.00;;
18042;SDS011;9146;48.074;11.968;2024-03-23T11:04:29;1.67;;;1.57;;
18042;SDS011;9146;48.074;11.968;2024-03-23T11:06:56;2.67;;;2.03;;
18042;SDS011;9146;48.074;11.968;2024-03-23T11:09:38;3.03;;;1.90;;
18042;SDS011;9146;48.074;11.968;2024-03-23T11:12:15;2.10;;;1.90;;
18042;SDS011;9146;48.074;11.968;2024-03-23T11:14:52;1.70;;;1.60;;
18042;SDS011;9146;48.074;11.968;2024-03-23T11:17:19;3.10;;;2.17;;
18042;SDS011;9146;48.074;11.968;2024-03-23T11:19:55;2.00;;;1.90;;
18042;SDS011;9146;48.074;11.968;2024-03-23T11:22:42;1.50;;;1.40;;
18042;SDS011;9146;48.074;11.968;2024-03-23T11:25:15;1.50;;;1.40;;
18042;SDS011;9146;48.074;11.968;2024-03-23T11:27:44;1.07;;;1.03;;
18042;SDS011;9146;48.074;11.968;2024-03-23T11:30:12;1.70;;;1.20;;
18042;SDS011;9146;48.074;11.968;2024-03-23T11:32:39;1.53;;;1.43;;
18042;SDS011;9146;48.074;11.968;2024-03-23T11:35:06;1.87;;;1.70;;
18042;SDS011;9146;48.074;11.968;2024-03-23T11:37:32;1.87;;;1.20;;
18042;SDS011;9146;48.074;11.968;2024-03-23T11:39:59;1.87;;;1.40;;
18042;SDS011;9146;48.074;11.968;2024-03-23T11:42:26;1.50;;;1.40;;
18042;SDS011;9146;48.074;11.968;2024-03-23T11:44:55;2.93;;;2.10;;
18042;SDS011;9146;48.074;11.968;2024-03-23T11:47:20;3.63;;;1.90;;
18042;SDS011;9146;48.074;11.968;2024-03-23T11:49:48;2.03;;;1.93;;
18042;SDS011;9146;48.074;11.968;2024-03-23T11:52:14;1.60;;;1.50;;
18042;SDS011;9146;48.074;11.968;2024-03-23T11:54:43;1.83;;;1.53;;
18042;SDS011;9146;48.074;11.968;2024-03-23T11:57:09;1.50;;;1.40;;
18042;SDS011;9146;48.074;11.968;2024-03-23T11:59:36;1.77;;;1.70;;
18042;SDS011;9146;48.074;11.968;2024-03-23T12:02:07;1.80;;;1.70;;
18042;SDS011;9146;48.074;11.968;2024-03-23T12:04:35;2.10;;;1.87;;
18042;SDS011;9146;48.074;11.968;2024-03-23T12:07:11;1.50;;;1.40;;
18042;SDS011;9146;48.074;11.968;2024-03-23T12:09:39;3.77;;;1.73;;
18042;SDS011;9146;48.074;11.968;2024-03-23T12:12:06;1.70;;;1.60;;
18042;SDS011;9146;48.074;11.968;2024-03-23T12:14:34;1.33;;;1.23;;
18042;SDS011;9146;48.074;11.968;2024-03-23T12:17:08;2.13;;;1.80;;
18042;SDS011;9146;48.074;11.968;2024-03-23T12:19:36;1.67;;;1.57;;
18042;SDS011;9146;48.074;11.968;2024-03-23T12:22:02;1.73;;;1.63;;
18042;SDS011;9146;48.074;11.968;2024-03-23T12:24:30;4.07;;;1.93;;
18042;SDS011;9146;48.074;11.968;2024-03-23T12:26:59;2.00;;;1.90;;
18042;SDS011;9146;48.074;11.968;2024-03-23T12:31:54;2.13;;;2.03;;
18042;SDS011;9146;48.074;11.968;2024-03-23T12:34:23;2.27;;;2.10;;
18042;SDS011;9146;48.074;11.968;2024-03-23T12:36:49;2.97;;;2.10;;
18042;SDS011;9146;48.074;11.968;2024-03-23T12:39:16;1.90;;;1.80;;
18042;SDS011;9146;48.074;11.968;2024-03-23T12:41:42;2.57;;;1.70;;
18042;SDS011;9146;48.074;11.968;2024-03-23T12:44:09;2.90;;;2.20;;
18042;SDS011;9146;48.074;11.968;2024-03-23T12:46:36;1.93;;;1.83;;
18042;SDS011;9146;48.074;11.968;2024-03-23T12:49:03;3.40;;;3.10;;
18042;SDS011;9146;48.074;11.968;2024-03-23T12:51:32;2.20;;;2.03;;
18042;SDS011;9146;48.074;11.968;2024-03-23T12:53:59;3.23;;;2.47;;
18042;SDS011;9146;48.074;11.968;2024-03-23T12:56:25;7.20;;;3.30;;
18042;SDS011;9146;48.074;11.968;2024-03-23T12:58:53;4.30;;;2.80;;
18042;SDS011;9146;48.074;11.968;2024-03-23T13:01:20;3.30;;;3.00;;
18042;SDS011;9146;48.074;11.968;2024-03-23T13:03:47;3.37;;;3.07;;
18042;SDS011;9146;48.074;11.968;2024-03-23T13:06:14;7.60;;;3.70;;
18042;SDS011;9146;48.074;11.968;2024-03-23T13:08:42;9.57;;;3.40;;
18042;SDS011;9146;48.074;11.968;2024-03-23T13:11:09;3.77;;;3.47;;
18042;SDS011;9146;48.074;11.968;2024-03-23T13:13:36;6.03;;;3.60;;
18042;SDS011;9146;48.074;11.968;2024-03-23T13:16:02;10.00;;;4.13;;
18042;SDS011;9146;48.074;11.968;2024-03-23T13:18:30;6.73;;;4.47;;
18042;SDS011;9146;48.074;11.968;2024-03-23T13:20:57;8.30;;;3.57;;
18042;SDS011;9146;48.074;11.968;2024-03-23T13:23:24;8.50;;;5.07;;
18042;SDS011;9146;48.074;11.968;2024-03-23T13:25:51;8.73;;;4.30;;
18042;SDS011;9146;48.074;11.968;2024-03-23T13:28:19;8.37;;;4.10;;
18042;SDS011;9146;48.074;11.968;2024-03-23T13:30:51;6.23;;;3.83;;
18042;SDS011;9146;48.074;11.968;2024-03-23T13:33:19;5.33;;;4.20;;
18042;SDS011;9146;48.074;11.968;2024-03-23T13:35:49;10.27;;;5.30;;
18042;SDS011;9146;48.074;11.968;2024-03-23T13:38:16;6.07;;;4.33;;
18042;SDS011;9146;48.074;11.968;2024-03-23T13:40:53;9.00;;;4.30;;
18042;SDS011;9146;48.074;11.968;2024-03-23T13:43:22;5.90;;;4.23;;
18042;SDS011;9146;48.074;11.968;2024-03-23T13:45:49;4.33;;;3.47;;
18042;SDS011;9146;48.074;11.968;2024-03-23T13:48:19;7.63;;;3.90;;
18042;SDS011;9146;48.074;11.968;2024-03-23T13:50:45;9.27;;;4.30;;
18042;SDS011;9146;48.074;11.968;2024-03-23T13:53:13;3.63;;;3.20;;
18042;SDS011;9146;48.074;11.968;2024-03-23T13:55:45;3.87;;;3.37;;
18042;SDS011;9146;48.074;11.968;2024-03-23T13:58:14;4.47;;;3.10;;
18042;SDS011;9146;48.074;11.968;2024-03-23T14:00:40;3.50;;;3.20;;
18042;SDS011;9146;48.074;11.968;2024-03-23T14:03:08;7.80;;;3.60;;
18042;SDS011;9146;48.074;11.968;2024-03-23T14:05:35;4.47;;;3.10;;
18042;SDS011;9146;48.074;11.968;2024-03-23T14:08:04;3.50;;;2.60;;
18042;SDS011;9146;48.074;11.968;2024-03-23T14:10:30;2.80;;;2.43;;
18042;SDS011;9146;48.074;11.968;2024-03-23T14:12:57;3.77;;;2.67;;
18042;SDS011;9146;48.074;11.968;2024-03-23T14:15:26;3.13;;;2.57;;
18042;SDS011;9146;48.074;11.968;2024-03-23T14:17:53;4.00;;;2.60;;
18042;SDS011;9146;48.074;11.968;2024-03-23T14:20:19;8.73;;;3.50;;
18042;SDS011;9146;48.074;11.968;2024-03-23T14:22:46;3.27;;;2.77;;
18042;SDS011;9146;48.074;11.968;2024-03-23T14:25:12;3.03;;;2.60;;
18042;SDS011;9146;48.074;11.968;2024-03-23T14:27:39;8.97;;;2.17;;
18042;SDS011;9146;48.074;11.968;2024-03-23T14:30:05;5.93;;;3.73;;
18042;SDS011;9146;48.074;11.968;2024-03-23T14:32:35;4.30;;;2.70;;
18042;SDS011;9146;48.074;11.968;2024-03-23T14:35:02;6.60;;;2.93;;
18042;SDS011;9146;48.074;11.968;2024-03-23T14:37:31;3.27;;;2.97;;
18042;SDS011;9146;48.074;11.968;2024-03-23T14:39:57;4.63;;;3.90;;
18042;SDS011;9146;48.074;11.968;2024-03-23T14:42:24;6.03;;;3.80;;
18042;SDS011;9146;48.074;11.968;2024-03-23T14:44:50;9.20;;;3.40;;
18042;SDS011;9146;48.074;11.968;2024-03-23T14:47:17;6.20;;;3.97;;
18042;SDS011;9146;48.074;11.968;2024-03-23T14:49:45;6.17;;;3.50;;
18042;SDS011;9146;48.074;11.968;2024-03-23T14:52:12;5.90;;;3.53;;
18042;SDS011;9146;48.074;11.968;2024-03-23T14:54:38;4.30;;;3.70;;
18042;SDS011;9146;48.074;11.968;2024-03-23T14:57:05;6.90;;;4.10;;
18042;SDS011;9146;48.074;11.968;2024-03-23T14:59:31;4.93;;;3.40;;
18042;SDS011;9146;48.074;11.968;2024-03-23T15:01:58;4.93;;;4.03;;
18042;SDS011;9146;48.074;11.968;2024-03-23T15:04:24;5.77;;;4.23;;
18042;SDS011;9146;48.074;11.968;2024-03-23T15:06:53;6.90;;;4.23;;
18042;SDS011;9146;48.074;11.968;2024-03-23T15:09:19;11.30;;;5.20;;
18042;SDS011;9146;48.074;11.968;2024-03-23T15:11:46;15.40;;;4.80;;
18042;SDS011;9146;48.074;11.968;2024-03-23T15:14:11;15.17;;;5.53;;
18042;SDS011;9146;48.074;11.968;2024-03-23T15:16:38;10.33;;;4.53;;
18042;SDS011;9146;48.074;11.968;2024-03-23T15:19:04;11.63;;;5.73;;
18042;SDS011;9146;48.074;11.968;2024-03-23T15:21:31;14.93;;;5.90;;
18042;SDS011;9146;48.074;11.968;2024-03-23T15:23:59;9.40;;;5.70;;
18042;SDS011;9146;48.074;11.968;2024-03-23T15:26:25;9.47;;;6.30;;
18042;SDS011;9146;48.074;11.968;2024-03-23T15:28:51;13.10;;;5.13;;
18042;SDS011;9146;48.074;11.968;2024-03-23T15:31:35;22.33;;;5.10;;
18042;SDS011;9146;48.074;11.968;2024-03-23T15:34:02;6.20;;;3.73;;
18042;SDS011;9146;48.074;11.968;2024-03-23T15:36:29;11.80;;;5.30;;
18042;SDS011;9146;48.074;11.968;2024-03-23T15:38:55;11.30;;;5.27;;
18042;SDS011;9146;48.074;11.968;2024-03-23T15:41:24;8.30;;;4.70;;
18042;SDS011;9146;48.074;11.968;2024-03-23T15:43:50;8.23;;;4.90;;
18042;SDS011;9146;48.074;11.968;2024-03-23T15:46:17;10.17;;;4.87;;
18042;SDS011;9146;48.074;11.968;2024-03-23T15:48:44;13.67;;;5.53;;